Time;durP1;ratioP1;P1;durP2;ratioP2;P2;SDS_P1;SDS_P2;PMS_P1;PMS_P2;Temp;Humidity;BMP_temperature;BMP_pressure;BME280_temperature;BME280_humidity;BME280_pressure;Samples;Min_cycle;Max_cycle;Signal;HPM_P1;HPM_P2
2021/12/16 00:01:44;;;;;;;66.43;31.70;;;8.80;99.90;;;;;;5073325;28;20219;-60
2021/12/16 00:03:58;;;;;;;72.20;32.73;;;8.70;99.90;;;;;;5072729;28;20231;-60
2021/12/16 00:09:15;;;;;;;69.37;32.20;;;8.70;99.90;;;;;;5051475;28;20345;-60
2021/12/16 00:31:16;;;;;;;65.70;30.73;;;8.80;82.50;;;;;;5072507;28;20225;-60
2021/12/16 00:33:57;;;;;;;70.60;32.07;;;8.80;77.00;;;;;;5072576;28;20278;-60
2021/12/16 00:36:23;;;;;;;69.33;32.67;;;8.70;55.70;;;;;;5072386;28;20235;-60
2021/12/16 00:38:50;;;;;;;67.57;31.50;;;8.70;73.20;;;;;;5072746;28;20204;-60
2021/12/16 00:41:17;;;;;;;62.70;32.27;;;8.70;77.00;;;;;;5071706;28;20728;-60
2021/12/16 00:43:50;;;;;;;69.77;32.50;;;8.70;85.30;;;;;;5072232;28;20208;-60
2021/12/16 00:46:31;;;;;;;71.07;32.87;;;8.60;83.70;;;;;;5072382;28;20238;-60
2021/12/16 00:49:20;;;;;;;77.27;33.70;;;8.60;99.90;;;;;;5072531;28;20212;-60
2021/12/16 00:54:32;;;;;;;67.37;32.27;;;8.60;99.90;;;;;;5072410;28;20245;-59
2021/12/16 00:57:04;;;;;;;73.27;34.80;;;8.60;99.90;;;;;;5072584;28;20207;-60
2021/12/16 00:59:35;;;;;;;76.90;33.03;;;8.60;99.90;;;;;;5072378;28;20216;-60
2021/12/16 01:02:16;;;;;;;80.70;35.27;;;8.50;99.90;;;;;;5071853;28;20770;-60
2021/12/16 01:05:13;;;;;;;77.97;34.33;;;8.60;99.90;;;;;;5072192;28;20233;-60
2021/12/16 01:07:58;;;;;;;80.10;36.10;;;8.60;99.90;;;;;;5071892;28;20665;-60
2021/12/16 01:35:18;;;;;;;80.03;35.53;;;8.70;99.90;;;;;;5072015;28;20375;-60
2021/12/16 01:38:37;;;;;;;77.10;34.97;;;8.80;99.90;;;;;;5071562;28;20207;-60
2021/12/16 01:41:58;;;;;;;84.73;35.87;;;8.70;99.90;;;;;;5071755;28;20212;-60
2021/12/16 01:47:17;;;;;;;81.73;34.93;;;8.70;99.90;;;;;;5071800;28;20228;-60
2021/12/16 01:49:53;;;;;;;82.53;36.03;;;8.60;99.90;;;;;;5072257;28;20617;-60
2021/12/16 01:55:28;;;;;;;87.77;37.40;;;8.70;99.90;;;;;;5071700;28;20259;-60
2021/12/16 01:57:59;;;;;;;88.33;37.50;;;8.80;99.90;;;;;;5071724;28;20238;-60
2021/12/16 02:00:31;;;;;;;93.80;37.80;;;8.80;99.90;;;;;;5071708;28;20209;-60
2021/12/16 02:03:02;;;;;;;88.13;37.77;;;8.80;99.90;;;;;;5071252;28;20225;-60
2021/12/16 02:05:52;;;;;;;92.37;36.93;;;8.80;99.90;;;;;;5071501;28;20229;-60
2021/12/16 02:08:23;;;;;;;83.40;35.83;;;8.80;99.90;;;;;;5071382;28;20226;-60
2021/12/16 02:11:11;;;;;;;86.37;36.13;;;8.80;99.90;;;;;;5071049;28;20208;-60
2021/12/16 02:27:15;;;;;;;84.00;37.40;;;8.80;99.90;;;;;;5072060;28;20610;-59
2021/12/16 02:31:04;;;;;;;85.13;37.10;;;8.90;99.90;;;;;;5073785;28;20720;-60
2021/12/16 02:33:23;;;;;;;86.10;35.60;;;8.90;99.90;;;;;;5074308;28;20200;-60
2021/12/16 02:36:01;;;;;;;97.27;38.83;;;8.80;99.90;;;;;;5074899;28;20227;-60
2021/12/16 02:38:33;;;;;;;90.23;37.97;;;8.80;99.90;;;;;;5074494;28;20689;-60
2021/12/16 02:41:01;;;;;;;93.17;37.57;;;8.90;99.90;;;;;;5074856;28;20205;-60
2021/12/16 02:43:55;;;;;;;96.70;36.83;;;8.90;99.90;;;;;;5074327;28;20220;-60
2021/12/16 02:49:06;;;;;;;100.80;40.07;;;8.90;99.90;;;;;;5074572;28;20191;-60
2021/12/16 02:51:32;;;;;;;95.93;38.50;;;8.90;99.90;;;;;;5074762;28;20209;-59
2021/12/16 02:54:04;;;;;;;96.47;37.83;;;8.90;99.90;;;;;;5074664;28;20613;-60
2021/12/16 02:56:31;;;;;;;96.17;39.37;;;8.90;99.90;;;;;;5074619;28;20252;-59
2021/12/16 02:58:59;;;;;;;91.37;36.87;;;9.00;99.90;;;;;;5074342;28;20209;-59
2021/12/16 03:01:30;;;;;;;92.63;38.07;;;8.90;99.90;;;;;;5074554;28;20213;-60
2021/12/16 03:03:59;;;;;;;99.37;39.20;;;8.90;99.90;;;;;;5074711;28;20216;-60
2021/12/16 03:06:28;;;;;;;88.07;38.20;;;8.90;99.90;;;;;;5074185;28;20225;-60
2021/12/16 03:08:55;;;;;;;96.60;36.40;;;8.90;99.90;;;;;;5074097;28;20213;-60
2021/12/16 03:11:30;;;;;;;97.27;39.00;;;8.90;99.90;;;;;;5073799;28;20567;-60
2021/12/16 03:14:22;;;;;;;93.77;37.57;;;8.90;99.90;;;;;;5074534;28;20207;-60
2021/12/16 03:17:04;;;;;;;87.60;37.33;;;8.90;99.90;;;;;;5074100;28;20209;-59
2021/12/16 03:19:42;;;;;;;100.63;37.60;;;8.90;99.90;;;;;;5074141;28;20245;-60
2021/12/16 03:22:20;;;;;;;95.07;38.37;;;8.90;99.90;;;;;;5073660;28;20323;-60
2021/12/16 03:25:08;;;;;;;99.87;39.43;;;8.90;99.90;;;;;;5074090;28;20224;-60
2021/12/16 03:28:11;;;;;;;89.13;37.57;;;8.90;99.90;;;;;;5073784;28;20690;-59
2021/12/16 03:33:42;;;;;;;90.43;37.13;;;8.90;99.90;;;;;;5073326;28;20223;-60
2021/12/16 03:36:25;;;;;;;90.40;37.23;;;8.90;99.90;;;;;;5073792;28;20309;-60
2021/12/16 03:38:54;;;;;;;91.00;37.70;;;8.80;99.90;;;;;;5073960;28;20289;-60
2021/12/16 03:41:22;;;;;;;95.77;38.57;;;8.90;99.90;;;;;;5073174;28;20207;-60
2021/12/16 03:43:51;;;;;;;92.20;37.80;;;8.90;99.90;;;;;;5073504;28;20298;-60
2021/12/16 03:46:27;;;;;;;84.63;36.27;;;8.90;99.90;;;;;;5073639;28;20330;-60
2021/12/16 03:48:59;;;;;;;85.17;36.40;;;8.90;99.90;;;;;;5075497;28;20193;-59
2021/12/16 03:51:29;;;;;;;84.27;35.90;;;8.90;99.90;;;;;;5075874;28;20216;-60
2021/12/16 03:54:00;;;;;;;76.50;35.27;;;8.90;99.90;;;;;;5076171;28;20269;-60
2021/12/16 03:56:27;;;;;;;87.43;37.23;;;8.90;99.90;;;;;;5075344;28;20232;-60
2021/12/16 03:58:55;;;;;;;89.07;38.23;;;8.90;99.90;;;;;;5075135;28;20228;-60
2021/12/16 04:01:25;;;;;;;80.50;36.50;;;8.90;99.90;;;;;;5072844;28;20281;-59
2021/12/16 04:03:52;;;;;;;87.30;36.90;;;8.90;99.90;;;;;;5073372;28;20240;-60
2021/12/16 04:06:20;;;;;;;89.80;37.97;;;8.90;99.90;;;;;;5073086;28;20274;-60
2021/12/16 04:08:47;;;;;;;81.17;36.73;;;8.90;99.90;;;;;;5073059;28;20274;-60
2021/12/16 04:11:20;;;;;;;87.73;36.63;;;8.90;77.30;;;;;;5072585;28;20213;-60
2021/12/16 04:13:56;;;;;;;89.23;37.80;;;8.90;77.10;;;;;;5072916;28;20236;-60
2021/12/16 04:16:29;;;;;;;79.90;34.83;;;8.90;40.50;;;;;;5072678;28;20553;-60
2021/12/16 04:18:58;;;;;;;89.80;37.63;;;8.90;29.60;;;;;;5072905;28;20673;-60
2021/12/16 04:21:27;;;;;;;82.67;34.90;;;8.90;1.00;;;;;;5072506;28;20266;-60
2021/12/16 04:23:56;;;;;;;82.23;35.97;;;8.90;1.00;;;;;;5072773;28;20279;-60
2021/12/16 04:26:24;;;;;;;85.60;36.77;;;8.90;1.00;;;;;;5072505;28;20651;-59
2021/12/16 04:28:51;;;;;;;87.13;37.13;;;8.90;1.00;;;;;;5072530;28;20258;-60
2021/12/16 04:31:18;;;;;;;84.17;35.37;;;8.90;1.00;;;;;;5072350;28;20209;-60
2021/12/16 04:33:47;;;;;;;88.40;36.00;;;8.80;1.00;;;;;;5072572;28;20201;-60
2021/12/16 04:36:15;;;;;;;95.57;39.30;;;8.80;1.00;;;;;;5072396;28;20708;-60
2021/12/16 04:38:43;;;;;;;90.63;35.53;;;8.70;1.00;;;;;;5072505;28;20238;-60
2021/12/16 04:41:11;;;;;;;90.03;37.17;;;8.70;1.00;;;;;;5071925;28;20619;-60
2021/12/16 04:43:43;;;;;;;92.53;38.20;;;8.80;1.00;;;;;;5072115;28;20228;-60
2021/12/16 04:46:14;;;;;;;90.80;35.57;;;8.70;99.90;;;;;;5072362;28;20278;-60
2021/12/16 04:48:44;;;;;;;93.30;36.90;;;8.80;99.90;;;;;;5072470;28;20282;-60
2021/12/16 04:51:13;;;;;;;81.67;35.17;;;8.70;99.90;;;;;;5071459;28;20211;-60
2021/12/16 04:53:41;;;;;;;77.37;34.90;;;8.70;99.90;;;;;;5072120;28;20288;-60
2021/12/16 04:56:09;;;;;;;77.50;34.67;;;8.70;99.90;;;;;;5071935;28;20272;-60
2021/12/16 04:58:41;;;;;;;83.13;34.17;;;8.60;99.90;;;;;;5072218;28;20242;-60
2021/12/16 05:01:08;;;;;;;84.20;35.53;;;8.60;99.90;;;;;;5071930;28;20257;-60
2021/12/16 05:03:35;;;;;;;86.07;36.07;;;8.60;99.90;;;;;;5072180;28;20600;-60
2021/12/16 05:06:02;;;;;;;88.77;37.20;;;8.60;99.90;;;;;;5072082;28;20247;-60
2021/12/16 05:08:30;;;;;;;88.03;36.13;;;8.60;99.90;;;;;;5072082;28;20224;-60
2021/12/16 05:11:00;;;;;;;85.27;36.17;;;8.60;99.90;;;;;;5072075;28;20212;-60
2021/12/16 05:13:29;;;;;;;85.73;35.23;;;8.50;99.90;;;;;;5071510;28;20695;-60
2021/12/16 05:16:01;;;;;;;78.13;34.07;;;8.40;99.90;;;;;;5071875;28;20704;-60
2021/12/16 05:18:32;;;;;;;81.83;34.70;;;8.30;1.00;;;;;;5069258;28;20219;-60
2021/12/16 05:21:00;;;;;;;90.50;34.87;;;8.20;1.00;;;;;;5070731;28;20211;-61
2021/12/16 05:26:20;;;;;;;81.43;33.57;;;8.20;1.00;;;;;;5071424;28;20648;-61
2021/12/16 05:28:49;;;;;;;83.23;34.13;;;8.30;1.00;;;;;;5071659;28;20208;-59
2021/12/16 05:31:16;;;;;;;86.97;34.60;;;8.30;1.00;;;;;;5071964;28;20213;-61
2021/12/16 05:33:44;;;;;;;85.27;35.17;;;8.30;1.00;;;;;;5072129;28;20201;-61
2021/12/16 05:36:10;;;;;;;88.13;34.53;;;8.20;1.00;;;;;;5071688;28;20278;-60
2021/12/16 05:38:37;;;;;;;86.30;34.83;;;8.20;1.00;;;;;;5071757;28;20265;-61
2021/12/16 05:41:06;;;;;;;90.40;34.80;;;8.30;1.00;;;;;;5071731;28;20235;-60
2021/12/16 05:43:34;;;;;;;94.17;35.90;;;8.30;1.00;;;;;;5060973;28;20617;-61
2021/12/16 05:46:02;;;;;;;90.17;34.87;;;8.40;1.00;;;;;;5065674;28;20713;-61
2021/12/16 05:48:32;;;;;;;86.70;33.90;;;8.40;1.00;;;;;;5071063;28;20208;-61
2021/12/16 05:51:07;;;;;;;85.17;35.50;;;8.40;1.00;;;;;;5071067;28;20209;-61
2021/12/16 05:53:35;;;;;;;90.13;35.90;;;8.40;1.00;;;;;;5070894;28;20202;-61
2021/12/16 05:56:02;;;;;;;89.23;35.30;;;8.40;1.00;;;;;;5070704;28;20602;-61
2021/12/16 05:58:30;;;;;;;91.47;35.27;;;8.40;1.00;;;;;;5071060;28;20218;-60
2021/12/16 06:01:00;;;;;;;92.53;36.33;;;8.40;1.00;;;;;;5069983;28;20219;-59
2021/12/16 06:03:28;;;;;;;85.87;35.53;;;8.40;1.00;;;;;;5070917;28;20581;-61
2021/12/16 06:05:55;;;;;;;93.97;34.67;;;8.40;1.00;;;;;;5074565;28;20236;-61
2021/12/16 06:08:22;;;;;;;88.97;36.07;;;8.30;1.00;;;;;;5074776;28;20681;-61
2021/12/16 06:13:35;;;;;;;92.53;35.07;;;8.30;1.00;;;;;;5071942;28;20261;-58
2021/12/16 06:27:05;;;;;;;92.97;36.60;;;8.30;81.10;;;;;;5075321;28;20341;-60
2021/12/16 06:29:32;;;;;;;95.53;36.27;;;8.20;76.60;;;;;;5074353;28;20205;-59
2021/12/16 06:32:00;;;;;;;95.03;36.93;;;8.10;66.00;;;;;;5074153;28;20610;-59
2021/12/16 06:34:27;;;;;;;97.70;37.80;;;8.10;76.50;;;;;;5074593;28;20218;-59
2021/12/16 06:36:55;;;;;;;93.83;36.20;;;8.10;76.40;;;;;;5074177;28;20675;-60
2021/12/16 06:39:22;;;;;;;97.40;36.47;;;8.10;75.30;;;;;;5074607;28;20187;-61
2021/12/16 06:41:49;;;;;;;98.77;37.23;;;8.00;42.90;;;;;;5074020;28;20215;-61
2021/12/16 06:44:18;;;;;;;98.83;36.50;;;7.90;16.90;;;;;;5074563;28;20569;-61
2021/12/16 06:46:46;;;;;;;95.27;37.13;;;7.90;37.60;;;;;;5074505;28;20207;-61
2021/12/16 06:49:17;;;;;;;101.63;37.23;;;7.80;75.90;;;;;;5074035;28;20644;-61
2021/12/16 06:51:49;;;;;;;96.30;37.13;;;7.70;99.90;;;;;;5072949;28;20738;-61
2021/12/16 06:54:23;;;;;;;106.10;38.17;;;7.70;99.90;;;;;;5073597;28;20226;-61
2021/12/16 06:56:58;;;;;;;105.93;37.90;;;7.60;99.90;;;;;;5074069;28;20272;-61
2021/12/16 06:59:29;;;;;;;113.73;39.00;;;7.60;99.90;;;;;;5074100;28;20592;-61
2021/12/16 07:02:11;;;;;;;111.07;40.20;;;7.60;99.90;;;;;;5073763;28;20305;-61
2021/12/16 07:04:43;;;;;;;112.67;39.53;;;7.60;99.90;;;;;;5073915;28;20226;-59
2021/12/16 07:07:10;;;;;;;116.27;42.23;;;7.60;99.90;;;;;;5074079;28;20213;-60
2021/12/16 07:09:38;;;;;;;124.10;43.27;;;7.70;99.90;;;;;;5073369;28;20285;-60
2021/12/16 07:12:07;;;;;;;118.43;40.57;;;7.80;99.90;;;;;;5073199;28;20203;-60
2021/12/16 07:14:38;;;;;;;120.53;43.43;;;7.90;99.90;;;;;;5072863;28;20221;-60
2021/12/16 07:17:07;;;;;;;123.00;40.50;;;7.90;99.90;;;;;;5073701;28;20214;-61
2021/12/16 07:19:34;;;;;;;123.73;42.27;;;7.90;99.90;;;;;;5073311;28;20659;-60
2021/12/16 07:22:03;;;;;;;121.03;41.23;;;7.90;99.90;;;;;;5073017;28;20261;-59
2021/12/16 07:24:30;;;;;;;119.30;41.90;;;8.00;99.90;;;;;;5073264;28;20729;-59
2021/12/16 07:26:56;;;;;;;117.07;42.33;;;8.00;1.00;;;;;;5073477;28;20214;-61
2021/12/16 07:29:23;;;;;;;106.13;41.97;;;8.10;1.00;;;;;;5073316;28;20208;-61
2021/12/16 07:31:50;;;;;;;124.70;42.57;;;8.00;1.00;;;;;;5072680;28;20241;-62
2021/12/16 07:34:18;;;;;;;127.67;42.73;;;8.10;1.00;;;;;;5072943;28;20212;-62
2021/12/16 07:36:47;;;;;;;126.43;41.50;;;8.10;1.00;;;;;;5073083;28;20258;-62
2021/12/16 07:39:19;;;;;;;113.03;40.73;;;8.10;1.00;;;;;;5073341;28;20208;-62
2021/12/16 07:41:49;;;;;;;120.00;41.83;;;8.10;1.00;;;;;;5072902;28;20203;-59
2021/12/16 07:44:16;;;;;;;130.10;43.27;;;8.00;1.00;;;;;;5072648;28;20224;-60
2021/12/16 07:46:46;;;;;;;120.87;41.33;;;8.10;1.00;;;;;;5072874;28;20650;-59
2021/12/16 07:49:15;;;;;;;118.03;43.23;;;8.20;1.00;;;;;;5073090;28;20209;-59
2021/12/16 07:51:43;;;;;;;137.20;44.07;;;8.20;1.00;;;;;;5072638;28;20257;-62
2021/12/16 07:54:10;;;;;;;127.23;44.80;;;8.20;1.00;;;;;;5072707;28;20211;-61
2021/12/16 07:56:39;;;;;;;124.70;43.77;;;8.20;1.00;;;;;;5072543;28;20725;-62
2021/12/16 07:59:07;;;;;;;139.50;45.33;;;8.30;1.00;;;;;;5072973;28;20279;-57
2021/12/16 08:01:35;;;;;;;142.77;45.57;;;8.30;1.00;;;;;;5072277;28;20346;-58
2021/12/16 08:04:02;;;;;;;141.47;44.03;;;8.20;1.00;;;;;;5072381;28;20224;-58
2021/12/16 08:06:31;;;;;;;139.17;46.90;;;8.20;1.00;;;;;;5072366;28;20227;-61
2021/12/16 08:09:00;;;;;;;147.70;47.17;;;8.10;1.00;;;;;;5072228;28;20220;-58
2021/12/16 08:11:29;;;;;;;132.50;44.07;;;8.10;1.00;;;;;;5071606;28;20220;-60
2021/12/16 08:13:58;;;;;;;146.90;47.37;;;8.10;1.00;;;;;;5072007;28;20202;-59
2021/12/16 08:16:25;;;;;;;147.30;47.07;;;8.10;1.00;;;;;;5072411;28;20235;-60
2021/12/16 08:18:52;;;;;;;155.87;48.43;;;8.20;1.00;;;;;;5072235;28;20578;-56
2021/12/16 08:21:19;;;;;;;142.40;46.77;;;8.10;1.00;;;;;;5071910;28;20211;-60
2021/12/16 08:23:46;;;;;;;139.33;44.40;;;8.20;1.00;;;;;;5071764;28;20294;-59
2021/12/16 08:26:15;;;;;;;136.60;44.03;;;8.30;1.00;;;;;;5070937;28;20227;-61
2021/12/16 08:28:43;;;;;;;129.47;42.87;;;8.30;1.00;;;;;;5072248;28;20840;-61
2021/12/16 08:31:11;;;;;;;134.40;44.10;;;8.40;22.00;;;;;;5072269;28;20212;-61
2021/12/16 08:33:39;;;;;;;134.73;43.40;;;8.40;47.90;;;;;;5071783;28;20207;-61
2021/12/16 08:36:07;;;;;;;130.93;47.00;;;8.50;48.20;;;;;;5071918;28;20308;-60
2021/12/16 08:38:34;;;;;;;124.10;41.40;;;8.50;57.50;;;;;;5071768;28;20208;-60
2021/12/16 08:41:08;;;;;;;127.80;43.83;;;8.50;66.00;;;;;;5072029;28;20214;-61
2021/12/16 08:43:41;;;;;;;123.63;42.70;;;8.60;86.10;;;;;;5071456;28;20232;-61
2021/12/16 08:46:12;;;;;;;119.60;42.13;;;8.60;89.30;;;;;;5071795;28;20715;-61
2021/12/16 08:48:40;;;;;;;117.60;41.03;;;8.50;48.00;;;;;;5071975;28;20195;-61
2021/12/16 08:51:07;;;;;;;121.27;41.43;;;8.50;40.30;;;;;;5071418;28;20208;-59
2021/12/16 08:53:36;;;;;;;135.33;43.33;;;8.50;39.00;;;;;;5071502;28;20205;-62
2021/12/16 08:56:05;;;;;;;130.47;41.97;;;8.60;50.80;;;;;;5071866;28;20278;-61
2021/12/16 08:58:34;;;;;;;118.93;42.20;;;8.70;67.60;;;;;;5071452;28;20209;-62
2021/12/16 09:01:05;;;;;;;114.43;41.90;;;8.70;57.50;;;;;;5071465;28;20204;-61
2021/12/16 09:03:33;;;;;;;117.33;41.63;;;8.70;61.00;;;;;;5070995;28;20329;-66
2021/12/16 09:06:02;;;;;;;116.87;40.50;;;8.80;74.40;;;;;;5071346;28;20228;-66
2021/12/16 09:08:29;;;;;;;112.60;37.23;;;9.00;99.90;;;;;;5071388;28;20220;-68
2021/12/16 09:11:08;;;;;;;116.13;41.73;;;9.40;99.90;;;;;;5071221;28;20232;-68
2021/12/16 09:13:53;;;;;;;103.93;38.47;;;9.60;99.90;;;;;;5071579;28;20207;-66
2021/12/16 09:16:23;;;;;;;110.67;41.40;;;9.80;99.90;;;;;;5071892;28;20578;-62
2021/12/16 09:18:52;;;;;;;90.60;38.10;;;9.90;99.90;;;;;;5071344;28;20212;-62
2021/12/16 09:21:22;;;;;;;88.93;36.77;;;9.70;99.90;;;;;;5071247;28;20219;-63
2021/12/16 09:23:50;;;;;;;91.27;35.80;;;9.70;99.90;;;;;;5071212;28;20228;-58
2021/12/16 09:26:18;;;;;;;86.37;37.00;;;9.60;1.00;;;;;;5071510;28;20280;-61
2021/12/16 09:28:46;;;;;;;84.23;35.60;;;9.60;99.90;;;;;;5071379;28;20209;-63
2021/12/16 09:31:16;;;;;;;91.13;36.90;;;9.50;99.90;;;;;;5071315;28;20204;-64
2021/12/16 09:33:47;;;;;;;93.83;38.27;;;9.40;99.90;;;;;;5071063;28;20200;-63
2021/12/16 09:36:18;;;;;;;102.63;38.53;;;9.40;1.00;;;;;;5071221;28;20303;-64
2021/12/16 09:38:45;;;;;;;99.87;40.20;;;9.30;1.00;;;;;;5073885;28;20205;-62
2021/12/16 09:41:12;;;;;;;102.33;39.27;;;9.20;1.00;;;;;;5074893;28;20213;-59
2021/12/16 09:43:42;;;;;;;109.80;41.23;;;9.20;1.00;;;;;;5075212;28;20235;-62
2021/12/16 09:46:21;;;;;;;105.83;38.60;;;9.20;1.00;;;;;;5046281;23;20242;-61
2021/12/16 09:48:48;;;;;;;112.93;40.33;;;9.10;1.00;;;;;;5015804;28;20622;-62
2021/12/16 09:51:24;;;;;;;104.93;39.30;;;9.20;1.00;;;;;;5015569;28;20213;-61
2021/12/16 09:53:53;;;;;;;111.13;39.97;;;9.20;1.00;;;;;;5015306;28;20202;-60
2021/12/16 09:56:22;;;;;;;113.80;42.63;;;9.20;1.00;;;;;;5000664;28;20779;-63
2021/12/16 09:58:51;;;;;;;115.40;40.67;;;9.20;1.00;;;;;;4995775;28;20302;-64
2021/12/16 10:01:19;;;;;;;112.40;42.47;;;9.10;1.00;;;;;;4995504;28;20203;-62
2021/12/16 10:03:49;;;;;;;122.03;41.13;;;9.10;1.00;;;;;;5009559;28;20398;-62
2021/12/16 10:06:18;;;;;;;114.63;40.50;;;9.20;1.00;;;;;;5015342;28;20233;-61
2021/12/16 10:08:46;;;;;;;112.63;38.67;;;9.10;1.00;;;;;;5015306;28;20703;-61
2021/12/16 10:11:15;;;;;;;119.73;40.87;;;9.10;1.00;;;;;;5014699;28;20218;-60
2021/12/16 10:13:47;;;;;;;117.63;40.33;;;9.10;1.00;;;;;;5014835;28;20206;-61
2021/12/16 10:19:14;;;;;;;110.77;39.30;;;9.10;43.70;;;;;;4954036;29;20276;-60
2021/12/16 10:21:45;;;;;;;110.53;36.67;;;9.10;43.40;;;;;;4953547;29;20307;-59
2021/12/16 10:24:22;;;;;;;103.77;36.83;;;9.20;14.70;;;;;;4982740;28;20223;-62
2021/12/16 10:27:06;;;;;;;102.00;36.67;;;9.20;1.00;;;;;;5014634;28;20701;-60
2021/12/16 10:29:37;;;;;;;97.83;33.60;;;9.20;1.00;;;;;;5014685;28;20276;-60
2021/12/16 10:32:05;;;;;;;94.77;34.47;;;9.20;1.00;;;;;;5014416;28;20253;-60
2021/12/16 10:34:32;;;;;;;89.10;33.67;;;9.30;1.00;;;;;;5014401;28;20199;-63
2021/12/16 10:37:00;;;;;;;98.93;34.43;;;9.30;99.90;;;;;;5014957;28;20214;-63
2021/12/16 10:39:28;;;;;;;89.13;33.67;;;9.30;99.90;;;;;;5014221;28;20215;-63
2021/12/16 10:41:58;;;;;;;90.80;35.40;;;9.20;94.60;;;;;;5014300;28;20214;-62
2021/12/16 10:44:31;;;;;;;91.83;34.43;;;9.00;91.30;;;;;;5014115;28;20231;-62
2021/12/16 10:47:00;;;;;;;89.93;34.13;;;9.10;99.90;;;;;;5014653;28;20207;-62
2021/12/16 10:49:30;;;;;;;96.40;33.17;;;9.10;99.90;;;;;;5013235;28;20207;-64
2021/12/16 10:52:01;;;;;;;89.60;35.87;;;9.10;99.90;;;;;;5013682;28;20687;-63
2021/12/16 10:54:29;;;;;;;98.27;36.53;;;9.10;99.90;;;;;;5014672;28;20206;-59
2021/12/16 10:57:00;;;;;;;81.73;32.60;;;9.20;99.90;;;;;;5014398;28;20207;-60
2021/12/16 10:59:31;;;;;;;93.47;34.83;;;9.20;1.00;;;;;;5015810;28;20199;-60
2021/12/16 11:02:10;;;;;;;93.00;34.07;;;9.20;1.00;;;;;;5010520;28;20223;-63
2021/12/16 11:04:43;;;;;;;93.33;33.87;;;9.20;1.00;;;;;;4994813;28;20585;-63
2021/12/16 11:07:16;;;;;;;96.10;36.27;;;9.20;99.90;;;;;;4994784;28;20215;-62
2021/12/16 11:09:57;;;;;;;94.97;35.17;;;9.20;99.90;;;;;;4994378;28;20207;-63
2021/12/16 11:12:37;;;;;;;88.77;32.23;;;9.20;99.90;;;;;;4994126;28;20207;-61
2021/12/16 11:15:12;;;;;;;86.43;33.53;;;9.20;99.90;;;;;;4994038;28;20289;-65
2021/12/16 11:17:41;;;;;;;85.50;33.43;;;9.20;99.90;;;;;;4999575;28;20213;-64
2021/12/16 11:20:14;;;;;;;91.77;33.90;;;9.30;99.90;;;;;;5013884;28;20269;-67
2021/12/16 11:22:43;;;;;;;86.90;32.20;;;9.40;99.90;;;;;;5013431;28;20213;-66
2021/12/16 11:25:17;;;;;;;89.60;34.53;;;9.60;1.00;;;;;;5013350;28;20234;-66
2021/12/16 11:27:49;;;;;;;97.70;36.20;;;9.80;1.00;;;;;;5013827;28;20210;-66
2021/12/16 11:30:39;;;;;;;89.33;35.30;;;9.80;1.00;;;;;;5013969;28;20235;-68
2021/12/16 11:33:11;;;;;;;84.30;32.63;;;9.70;1.00;;;;;;5012982;28;20258;-68
2021/12/16 11:35:43;;;;;;;75.60;32.60;;;9.70;1.00;;;;;;5013145;28;20223;-64
2021/12/16 11:38:17;;;;;;;72.93;29.43;;;9.80;99.90;;;;;;5013524;28;20207;-64
2021/12/16 11:41:26;;;;;;;85.37;34.83;;;10.00;1.00;;;;;;5013542;28;20616;-61
2021/12/16 11:44:14;;;;;;;77.13;33.60;;;10.10;99.90;;;;;;5012875;28;20207;-61
2021/12/16 11:46:43;;;;;;;78.47;34.07;;;10.10;1.00;;;;;;5013154;28;20227;-60
2021/12/16 11:49:30;;;;;;;81.57;32.63;;;10.00;99.90;;;;;;5013492;28;20567;-62
2021/12/16 11:52:01;;;;;;;87.53;32.93;;;9.70;1.00;;;;;;5012914;28;20214;-62
2021/12/16 11:54:33;;;;;;;84.53;33.77;;;9.60;99.90;;;;;;5011089;28;20203;-63
2021/12/16 11:57:10;;;;;;;88.60;34.83;;;9.50;99.90;;;;;;5012886;28;20758;-60
2021/12/16 11:59:39;;;;;;;93.50;35.30;;;9.50;1.00;;;;;;5012840;28;20242;-60
2021/12/16 12:02:19;;;;;;;93.40;35.53;;;9.50;99.90;;;;;;5011969;28;20215;-61
2021/12/16 12:04:46;;;;;;;89.93;34.97;;;9.40;99.90;;;;;;5012711;28;20296;-63
2021/12/16 12:07:52;;;;;;;96.43;37.60;;;9.30;1.00;;;;;;5013183;28;20215;-63
2021/12/16 12:10:53;;;;;;;96.57;35.27;;;9.30;1.00;;;;;;5004681;28;20284;-62
2021/12/16 12:13:32;;;;;;;98.43;35.47;;;9.40;99.90;;;;;;4993641;28;20293;-62
2021/12/16 12:16:03;;;;;;;95.13;34.40;;;9.40;99.90;;;;;;4992745;28;20238;-63
2021/12/16 12:22:04;;;;;;;96.03;33.43;;;9.50;1.00;;;;;;4914821;28;20261;-61
2021/12/16 12:24:37;;;;;;;91.70;33.40;;;9.50;1.00;;;;;;4992693;28;20282;-59
2021/12/16 12:27:08;;;;;;;89.73;33.07;;;9.60;1.00;;;;;;4992944;28;20210;-59
2021/12/16 12:29:38;;;;;;;96.47;33.33;;;9.50;13.00;;;;;;4992776;28;20226;-60
2021/12/16 12:32:08;;;;;;;90.63;34.63;;;9.40;67.00;;;;;;4991984;28;20211;-61
2021/12/16 12:34:37;;;;;;;98.20;35.60;;;9.50;99.90;;;;;;4992783;28;20227;-61
2021/12/16 12:37:09;;;;;;;93.57;34.80;;;9.40;99.90;;;;;;4992589;28;20208;-61
2021/12/16 12:39:39;;;;;;;91.50;32.97;;;9.50;99.90;;;;;;4992523;28;20660;-61
2021/12/16 12:42:07;;;;;;;89.57;34.53;;;9.50;99.90;;;;;;4992985;28;20211;-63
2021/12/16 12:44:36;;;;;;;90.93;34.93;;;9.50;99.90;;;;;;5001574;28;20231;-64
2021/12/16 12:47:06;;;;;;;103.57;35.33;;;9.40;99.90;;;;;;4994652;28;20199;-64
2021/12/16 12:49:33;;;;;;;91.83;34.07;;;9.40;99.90;;;;;;5003069;28;20207;-64
2021/12/16 12:52:08;;;;;;;92.50;34.10;;;9.40;99.90;;;;;;5001781;28;20214;-64
2021/12/16 12:54:43;;;;;;;84.30;32.97;;;9.40;1.00;;;;;;4997587;28;20904;-63
2021/12/16 12:57:31;;;;;;;88.90;34.87;;;9.40;1.00;;;;;;4992651;28;20208;-63
2021/12/16 13:00:00;;;;;;;85.13;32.33;;;9.50;99.90;;;;;;4992643;28;20214;-63
2021/12/16 13:02:34;;;;;;;89.73;33.53;;;9.40;99.90;;;;;;4991780;28;20668;-62
2021/12/16 13:05:11;;;;;;;90.70;34.63;;;9.40;1.00;;;;;;4992385;28;20258;-63
2021/12/16 13:07:43;;;;;;;98.00;34.77;;;9.50;99.90;;;;;;4998557;28;20217;-62
2021/12/16 13:10:14;;;;;;;90.67;33.87;;;9.50;99.90;;;;;;5012118;28;20642;-60
2021/12/16 13:12:47;;;;;;;88.57;34.50;;;9.40;99.90;;;;;;5010829;28;20210;-61
2021/12/16 13:15:34;;;;;;;97.03;34.63;;;9.40;99.90;;;;;;5011798;28;20223;-62
2021/12/16 13:24:13;;;;;;;84.97;32.87;;;9.50;99.90;;;;;;5011746;28;20349;-63
2021/12/16 13:27:08;;;;;;;84.80;33.43;;;9.60;99.90;;;;;;5011911;28;20227;-65
2021/12/16 13:29:39;;;;;;;93.07;34.03;;;9.60;99.90;;;;;;5011645;28;20699;-61
2021/12/16 13:32:13;;;;;;;89.10;35.90;;;9.60;99.90;;;;;;5011446;28;20211;-60
2021/12/16 13:34:56;;;;;;;87.83;32.60;;;9.60;99.90;;;;;;5011864;28;20320;-60
2021/12/16 13:40:22;;;;;;;92.60;35.93;;;9.50;99.90;;;;;;4989324;28;20290;-70
2021/12/16 13:42:55;;;;;;;96.03;33.87;;;9.50;99.90;;;;;;4990560;28;20676;-70
2021/12/16 13:45:34;;;;;;;105.53;35.37;;;9.50;1.00;;;;;;4991637;28;20282;-67
2021/12/16 13:48:18;;;;;;;92.70;33.03;;;9.60;99.90;;;;;;4999973;28;20261;-65
2021/12/16 14:02:52;;;;;;;79.17;32.53;;;10.10;82.60;;;;;;5010774;28;20206;-60
2021/12/16 14:05:27;;;;;;;84.03;33.00;;;10.00;99.90;;;;;;5011271;28;20790;-61
2021/12/16 14:07:58;;;;;;;87.53;33.10;;;9.80;99.90;;;;;;5011191;28;20337;-62
2021/12/16 14:10:35;;;;;;;81.87;33.13;;;9.70;99.90;;;;;;5011371;28;20273;-60
2021/12/16 14:16:25;;;;;;;87.13;34.37;;;9.70;13.80;;;;;;5010886;28;20222;-59
2021/12/16 14:25:02;;;;;;;84.60;32.60;;;9.50;1.40;;;;;;5013156;28;20226;-63
2021/12/16 14:36:54;;;;;;;83.27;33.27;;;9.20;99.90;;;;;;5014462;28;20628;-60
2021/12/16 14:42:14;;;;;;;92.73;34.53;;;9.20;93.90;;;;;;5014380;28;20176;-61
2021/12/16 14:47:52;;;;;;;92.53;35.03;;;9.30;99.90;;;;;;5013949;28;20202;-62
2021/12/16 14:50:21;;;;;;;92.63;33.37;;;9.20;99.90;;;;;;5014203;28;20214;-62
2021/12/16 14:52:47;;;;;;;99.43;35.43;;;9.20;99.90;;;;;;5006887;28;20215;-61
2021/12/16 14:55:18;;;;;;;101.03;36.00;;;9.20;99.90;;;;;;4993966;28;20231;-61
2021/12/16 14:57:50;;;;;;;95.80;33.73;;;9.10;99.90;;;;;;4994564;28;20204;-61
2021/12/16 15:00:20;;;;;;;91.23;32.70;;;9.20;99.90;;;;;;4994963;28;20215;-61
2021/12/16 15:02:50;;;;;;;94.27;32.77;;;9.20;99.90;;;;;;4994274;28;20312;-61
2021/12/16 15:05:27;;;;;;;97.97;35.53;;;9.20;99.90;;;;;;4994555;28;20269;-62
2021/12/16 15:07:54;;;;;;;95.47;33.73;;;9.10;99.90;;;;;;4994530;28;20585;-63
2021/12/16 15:10:23;;;;;;;91.43;33.17;;;9.20;99.90;;;;;;4994165;28;20207;-62
2021/12/16 15:13:01;;;;;;;102.10;35.47;;;9.20;99.90;;;;;;4993823;28;20257;-62
2021/12/16 15:15:34;;;;;;;103.70;36.80;;;9.10;99.90;;;;;;4994510;28;20232;-63
2021/12/16 15:40:58;;;;;;;87.30;33.03;;;9.30;99.90;;;;;;4994127;28;20246;-62
2021/12/16 15:43:32;;;;;;;83.37;31.67;;;9.30;99.90;;;;;;4993252;28;20211;-62
2021/12/16 15:46:03;;;;;;;90.37;32.60;;;9.20;99.90;;;;;;4993549;28;20235;-62
2021/12/16 15:48:31;;;;;;;85.03;31.50;;;9.10;99.90;;;;;;4994232;28;20217;-62
2021/12/16 15:51:02;;;;;;;93.97;34.63;;;9.10;99.90;;;;;;4993514;28;20207;-62